x

9449880 - Friday Harbor, Wa (frdw1) Weather Station

1:30 - Sat 10th Dec 2016 All times are PST. -8 hours from GMT.

  • Wind
    11mph, 22mph gusts
  • Sea Temp 49°f
  • Luft Temp 42°f
  • Sea Pressure 1008.3mb
  • 9449880 - Friday Harbor, Wa
  • 9449880 - Friday Harbor, Wa

More Historic Weather Station data

Upgrade to MSW Pro to gain access to the past 30 days of data for over 8000 Wavebouys and Weather Stations around the globe.

Join Pro

Comparision Forecast

View Surf forecast
   
Sa 12/10 1:30 11 22 mph 1008.3mb 49f 42f
1:24 14 22 mph 1008.3mb 49f 42f
1:18 15 26 mph 1008.4mb 49f 42f
1:12 15 23 mph 1008.2mb 49f 43f
1:06 14 20 mph 1008.1mb 49f 43f
1:00 13 18 mph 1008.1mb 49f 43f
12:36 9 15 mph 1008.3mb 49f 43f
12:30 10 18 mph 1008.4mb 49f 43f
12:24 9 17 mph 1008.6mb 49f 42f
12:18 9 14 mph 1008.7mb 49f 42f
12:12 10 16 mph 1008.7mb 49f 42f
12:06 10 16 mph 1008.9mb 49f 42f
12:00 13 18 mph 1008.9mb 49f 42f
11:36 14 18 mph 1009.1mb 49f 42f
11:30 13 16 mph 1009.1mb 49f 41f
11:24 13 16 mph 1009.3mb 49f 41f
11:18 14 21 mph 1009.4mb 49f 41f
11:12 15 20 mph 1009.4mb 49f 41f
11:06 14 17 mph 1009.5mb 49f 41f
11:00 14 17 mph 1009.7mb 49f 41f
10:36 13 18 mph 1010mb 49f 41f
10:30 10 17 mph 1010mb 49f 41f
10:24 13 18 mph 1010mb 49f 40f
10:18 13 15 mph 1010.2mb 49f 40f
10:12 13 16 mph 1010.2mb 49f 40f
10:06 10 14 mph 1010.2mb 49f 40f
10:00 10 17 mph 1010.3mb 49f 40f
9:36 6 10 mph 1010.5mb 49f 40f
9:30 8 10 mph 1010.4mb 49f 40f
9:24 7 11 mph 1010.3mb 49f 40f
9:18 8 11 mph 1010.2mb 49f 39f
9:12 8 10 mph 1010.1mb 49f 39f
9:06 9 13 mph 1010.1mb 49f 40f
9:00 9 14 mph 1010mb 49f 39f
8:36 7 11 mph 1010.3mb 49f 40f
8:30 9 13 mph 1010.3mb 49f 39f
8:24 9 14 mph 1010.3mb 49f 39f
8:18 8 13 mph 1010.3mb 49f 39f
8:12 9 14 mph 1010.2mb 49f 39f
8:06 9 13 mph 1010.1mb 49f 40f
8:00 9 13 mph 1010mb 49f 40f
7:36 9 11 mph 1010.1mb 49f 40f
7:30 9 13 mph 1010.1mb 49f 40f
7:24 9 11 mph 1010mb 49f 40f
7:18 8 13 mph 1010.2mb 49f 40f
7:12 8 11 mph 1010.3mb 49f 40f
7:06 7 10 mph 1010.3mb 49f 40f
7:00 8 10 mph 1010.3mb 49f 39f
6:36 10 13 mph 1009.9mb 49f 40f
6:30 9 11 mph 1009.9mb 49f 39f
6:24 8 10 mph 1010mb 49f 39f
6:18 8 10 mph 1010mb 49f 39f
6:12 8 10 mph 1010.1mb 49f 39f
6:06 8 10 mph 1010.1mb 49f 39f
6:00 8 10 mph 1010.1mb 49f 39f
5:36 7 10 mph 1009.9mb 49f 38f
5:30 8 10 mph 1009.9mb 49f 38f
5:24 6 9 mph 1010mb 49f 39f
5:18 7 9 mph 1010mb 49f 38f
5:12 7 10 mph 1009.8mb 49f 39f
5:06 7 9 mph 1009.8mb 49f 39f
5:00 6 9 mph 1009.7mb 49f 39f
4:36 5 8 mph 1009.6mb 49f 39f
4:30 6 9 mph 1009.7mb 49f 39f
4:24 6 8 mph 1009.8mb 49f 39f
4:18 6 9 mph 1009.8mb 49f 39f
4:12 6 8 mph 1009.8mb 49f 39f
4:06 5 7 mph 1009.9mb 49f 39f
4:00 6 8 mph 1009.8mb 49f 39f
3:36 6 7 mph 1009.7mb 49f 39f
3:30 7 8 mph 1009.8mb 49f 39f
3:24 7 8 mph 1009.8mb 49f 40f
3:18 6 8 mph 1009.7mb 49f 40f
3:12 6 9 mph 1009.7mb 49f 40f
3:06 6 8 mph 1009.7mb 49f 40f
3:00 5 9 mph 1009.7mb 49f 40f
2:36 3 6 mph 1009.7mb 49f 41f
2:30 5 7 mph 1009.7mb 49f 41f
2:24 6 9 mph 1009.7mb 49f 41f
2:18 7 9 mph 1009.6mb 49f 41f
2:12 8 10 mph 1009.5mb 49f 41f
2:06 6 11 mph 1009.5mb 49f 41f
2:00 9 13 mph 1009.4mb 49f 41f
1:36 5 8 mph 1009.2mb 49f 41f
1:30 6 8 mph 1009.2mb 49f 41f
1:24 5 9 mph 1009.2mb 49f 40f
1:18 6 10 mph 1009.3mb 49f 40f
1:12 7 11 mph 1009.3mb 49f 40f
1:06 6 11 mph 1009.3mb 49f 40f
1:00 9 13 mph 1009.3mb 49f 40f
12:36 5 7 mph 1009.3mb 49f 40f
12:30 7 10 mph 1009.3mb 49f 40f
12:24 6 11 mph 1009.2mb 49f 40f
12:18 6 10 mph 1009.2mb 49f 40f
12:12 6 9 mph 1009.2mb 49f 40f
12:06 7 10 mph 1009.2mb 49f 39f
12:00 8 10 mph 1009.2mb 49f 39f
Fr 12/09 11:36 7 9 mph 1009.1mb 49f 39f
11:30 5 7 mph 1009mb 49f 40f
11:24 5 7 mph 1008.9mb 49f 40f
11:18 6 9 mph 1009mb 49f 40f
11:12 8 10 mph 1009mb 49f 40f
11:06 7 11 mph 1009.1mb 49f 40f
11:00 8 11 mph 1009.2mb 49f 40f
10:36 8 14 mph 1009mb 49f 41f
10:30 9 14 mph 1008.9mb 49f 41f
10:24 9 14 mph 1009mb 49f 41f
10:18 6 9 mph 1008.7mb 49f 41f
10:12 8 11 mph 1008.6mb 49f 41f
10:06 8 14 mph 1008.5mb 49f 41f
10:00 9 16 mph 1008.5mb 49f 41f
9:36 13 18 mph 1008.6mb 49f 41f
9:30 10 15 mph 1008.6mb 49f 40f
9:24 9 15 mph 1008.7mb 49f 40f
9:18 8 15 mph 1008.8mb 49f 40f
9:12 5 10 mph 1008.8mb 49f 39f
9:06 7 13 mph 1008.9mb 49f 39f
9:00 7 11 mph 1008.9mb 49f 39f
8:36 6 10 mph 1009.2mb 49f 38f
8:30 9 13 mph 1009.1mb 49f 38f
8:24 11 14 mph 1009.1mb 49f 38f
8:18 10 15 mph 1008.9mb 49f 38f
8:12 10 14 mph 1009mb 49f 38f
8:06 10 14 mph 1009.2mb 49f 38f
8:00 10 13 mph 1009.2mb 49f 38f
7:36 9 14 mph 1009.8mb 49f 38f
7:30 8 13 mph 1009.8mb 49f 39f
7:24 7 10 mph 1009.8mb 49f 39f
7:18 8 14 mph 1009.8mb 49f 39f
7:12 8 10 mph 1009.8mb 49f 39f
7:06 7 14 mph 1009.7mb 49f 39f
7:00 8 11 mph 1009.6mb 49f 39f
6:36 10 16 mph 1009.6mb 49f 39f
6:30 10 14 mph 1009.6mb 49f 39f
6:24 11 15 mph 1009.6mb 49f 39f
6:18 9 13 mph 1009.9mb 49f 39f
6:12 10 14 mph 1010mb 49f 39f
6:06 10 14 mph 1010mb 49f 39f
6:00 11 14 mph 1010.1mb 49f 39f
5:36 11 15 mph 1010.7mb 49f 39f
5:30 11 16 mph 1010.9mb 49f 39f
5:24 9 14 mph 1011mb 49f 38f
5:18 13 16 mph 1011.2mb 49f 39f
5:12 10 15 mph 1011.3mb 49f 39f
5:06 10 13 mph 1011.4mb 49f 39f
5:00 10 15 mph 1011.5mb 49f 38f
4:36 13 17 mph 1011.6mb 49f 39f
4:30 14 18 mph 1011.7mb 49f 38f
4:24 11 17 mph 1011.8mb 49f 38f
4:18 14 18 mph 1012mb 49f 38f
4:12 13 16 mph 1012.2mb 49f 38f
4:06 11 16 mph 1012.3mb 49f 38f
4:00 10 15 mph 1012.2mb 49f 38f
3:36 10 14 mph 1012.9mb 49f 38f
3:30 11 15 mph 1013mb 49f 38f
3:24 13 15 mph 1012.9mb 49f 38f
3:18 10 14 mph 1012.9mb 49f 38f
3:12 10 14 mph 1012.9mb 49f 38f
3:06 10 15 mph 1013.1mb 49f 37f
3:00 10 14 mph 1013.1mb 49f 38f
2:36 11 16 mph 1012.9mb 49f 37f
2:30 11 14 mph 1013mb 49f 37f
2:24 9 13 mph 1013.1mb 49f 38f
2:18 9 14 mph 1013.1mb 49f 37f
2:12 10 13 mph 1013.2mb 49f 38f
2:06 10 13 mph 1013.2mb 49f 37f
2:00 9 13 mph 1013.4mb 49f 37f
1:54 9 13 mph 1013.4mb 49f 37f
1:48 9 13 mph 1013.5mb 49f 37f
1:36 11 14 mph 1013.5mb 49f 37f
1:30 10 15 mph 1013.5mb 49f 38f
1:24 10 14 mph 1013.5mb 49f 37f
1:18 11 14 mph 1013.6mb 49f 37f
1:12 8 13 mph 1013.7mb 49f 37f
1:06 7 11 mph 1013.7mb 49f 38f
1:00 9 11 mph 1013.6mb 49f 37f
12:54 9 13 mph 1013.7mb 49f 37f
12:48 9 14 mph 1013.8mb 49f 37f
12:36 9 13 mph 1014mb 49f 37f
12:30 7 11 mph 1014.1mb 49f 37f
12:24 6 11 mph 1014.2mb 49f 38f
12:18 8 13 mph 1014.4mb 49f 37f
12:12 8 10 mph 1014.4mb 49f 37f
12:06 8 11 mph 1014.5mb 49f 38f
12:00 7 9 mph 1014.4mb 49f 38f
11:54 8 10 mph 1014.3mb 49f 37f
11:48 9 11 mph 1014.3mb 49f 37f
11:36 7 9 mph 1014.4mb 49f 37f
11:30 7 10 mph 1014.5mb 49f 37f
11:24 7 10 mph 1014.5mb 49f 37f
11:18 8 11 mph 1014.5mb 49f 37f
11:12 9 13 mph 1014.5mb 49f 37f
11:06 9 13 mph 1014.5mb 49f 37f
11:00 10 13 mph 1014.6mb 49f 37f
10:54 9 14 mph 1014.6mb 49f 37f
10:48 10 14 mph 1014.7mb 49f 37f
10:36 8 13 mph 1014.9mb 49f 37f
10:30 9 14 mph 1015mb 49f 37f
10:24 7 13 mph 1015mb 49f 37f
10:18 7 9 mph 1015.1mb 49f 37f
10:12 8 10 mph 1015mb 49f 37f
10:06 9 11 mph 1015mb 49f 36f
10:00 9 13 mph 1015mb 49f 36f
9:54 10 14 mph 1015mb 49f 36f
9:48 10 13 mph 1015mb 49f 36f
9:36 9 13 mph 1015mb 49f 36f
9:30 10 14 mph 1015mb 49f 36f
9:24 9 14 mph 1014.9mb 49f 36f
9:18 9 13 mph 1015.1mb 49f 35f
9:12 10 14 mph 1015mb 49f 35f
9:06 11 14 mph 1015.1mb 49f 35f
9:00 10 14 mph 1015.3mb 49f 35f
8:54 11 14 mph 1015.2mb 49f 35f
8:48 10 13 mph 1015.2mb 49f 35f
8:36 10 15 mph 1015.2mb 49f 35f
8:30 9 11 mph 1015.3mb 49f 34f
8:24 9 13 mph 1015.4mb 49f 34f
8:18 10 11 mph 1015.2mb 49f 34f
8:12 9 11 mph 1015.1mb 49f 34f
8:06 8 13 mph 1014.9mb 49f 34f
8:00 9 13 mph 1014.9mb 49f 34f
7:54 10 13 mph 1014.9mb 49f 33f
7:48 10 11 mph 1015mb 49f 33f
7:36 8 10 mph 1015.1mb 49f 33f
7:30 8 11 mph 1015.1mb 49f 33f
7:24 8 11 mph 1015.1mb 49f 33f
7:18 8 10 mph 1015.1mb 49f 33f
7:12 8 10 mph 1015.1mb 49f 33f
7:06 8 11 mph 1015mb 49f 33f
7:00 8 10 mph 1014.9mb 49f 33f
6:54 10 13 mph 1014.6mb 49f 33f
6:48 9 11 mph 1014.8mb 49f 33f
6:36 6 10 mph 1015.1mb 49f 33f
6:30 9 11 mph 1014.8mb 49f 33f
6:24 7 11 mph 1015mb 49f 33f
6:18 9 13 mph 1014.8mb 49f 33f
6:12 8 11 mph 1014.9mb 49f 34f
6:06 9 13 mph 1015mb 49f 33f
6:00 9 11 mph 1015mb 49f 34f
5:54 8 10 mph 1015.1mb 49f 33f
5:48 9 13 mph 1015.2mb 49f 33f
5:36 9 11 mph 1015.1mb 49f 33f
5:30 8 10 mph 1015.1mb 49f 32f
5:24 7 10 mph 1015.2mb 49f 33f
5:18 7 9 mph 1015.1mb 49f 32f
5:12 8 10 mph 1015mb 49f 33f
5:06 8 13 mph 1015.1mb 49f 32f
5:00 9 13 mph 1015.1mb 49f 32f
4:36 10 14 mph 1015.1mb 49f 32f
4:30 11 15 mph 1015.1mb 49f 32f
4:24 10 14 mph 1015.1mb 49f 32f
4:18 10 14 mph 1015.2mb 49f 32f
4:12 11 15 mph 1015.2mb 49f 31f
4:06 9 15 mph 1015.2mb 49f 32f
4:00 13 16 mph 1015.2mb 49f 31f
3:54 13 16 mph 1015.3mb 49f 31f
3:48 11 15 mph 1015.5mb 49f 31f
3:36 11 14 mph 1015.7mb 49f 31f
3:30 9 14 mph 1015.8mb 49f 31f
3:24 8 13 mph 1015.7mb 49f 31f
3:18 7 10 mph 1015.8mb 49f 31f
3:12 3 6 mph 1015.8mb 49f 29f
3:06 2 5 mph 1015.9mb 49f 29f
3:00 5 8 mph 1015.8mb 49f 29f
2:54 2 5 mph 1015.8mb 49f 29f
2:48 3 6 mph 1015.8mb 49f 29f
2:36 3 8 mph 1015.7mb 49f 29f
2:30 6 11 mph 1015.6mb 49f 29f
2:24 2 6 mph 1015.8mb 49f 29f
2:18 5 8 mph 1015.8mb 49f 29f
2:12  -  9 mph 1015.8mb 49f 29f
2:06 5 11 mph 1015.7mb 49f 29f
2:00 8 10 mph 1015.7mb 49f 29f
1:54 5 9 mph 1015.7mb 49f 29f
1:48 6 13 mph 1015.7mb 49f 29f
1:36 13 15 mph 1015.4mb 49f 32f
1:30 9 14 mph 1015.5mb 49f 32f
1:24 11 15 mph 1015.6mb 49f 32f
1:18 13 16 mph 1015.6mb 49f 31f
1:12 14 17 mph 1015.6mb 49f 31f
1:06 11 15 mph 1015.6mb 49f 31f
1:00 11 14 mph 1015.5mb 49f 30f
12:54 11 14 mph 1015.6mb 49f 31f
12:48 11 14 mph 1015.6mb 49f 31f
12:36 9 13 mph 1015.5mb 49f 32f
12:30 10 14 mph 1015.5mb 49f 33f
12:24 10 13 mph 1015.6mb 49f 33f
12:18 11 16 mph 1015.6mb 49f 34f
12:12 13 17 mph 1015.7mb 49f 34f
12:06 15 20 mph 1015.6mb 49f 35f
12:00 13 17 mph 1015.6mb 49f 35f
Do 12/08 11:54 13 17 mph 1015.6mb 49f 35f
11:48 14 17 mph 1015.6mb 49f 35f
11:36 13 17 mph 1015.6mb 49f 35f
11:30 11 15 mph 1015.7mb 49f 35f
11:24 11 17 mph 1015.6mb 49f 35f
11:18 11 15 mph 1015.6mb 49f 35f
11:12 11 16 mph 1015.4mb 49f 35f
11:06 11 18 mph 1015.3mb 49f 35f
11:00 15 21 mph 1015.3mb 49f 35f
10:54 11 15 mph 1015.3mb 49f 35f
10:48 11 17 mph 1015.3mb 49f 35f
10:36 13 15 mph 1015.1mb 49f 35f
10:30 13 16 mph 1014.9mb 49f 35f
10:24 13 16 mph 1015mb 49f 35f
10:18 11 15 mph 1015.1mb 49f 35f
10:12 14 16 mph 1015mb 49f 35f
10:06 14 17 mph 1015mb 49f 35f
10:00 11 15 mph 1015.1mb 49f 35f
9:54 10 13 mph 1015.1mb 49f 35f
9:48 9 10 mph 1015.2mb 49f 35f
9:36 8 9 mph 1015.1mb 49f 35f
9:30 7 10 mph 1015.1mb 49f 35f
9:24 7 10 mph 1015mb 49f 35f
9:18 6 8 mph 1014.9mb 49f 34f
9:12 6 11 mph 1014.9mb 49f 34f
9:06 5 6 mph 1014.8mb 49f 34f
9:00 5 7 mph 1014.7mb 49f 33f
8:54 6 11 mph 1014.7mb 49f 34f
8:48 6 10 mph 1014.7mb 49f 33f
8:36 6 8 mph 1014.6mb 49f 33f
8:30 5 7 mph 1014.6mb 49f 33f
8:24 5 7 mph 1014.7mb 49f 33f
8:18 3 6 mph 1014.7mb 49f 33f
8:12 3 6 mph 1014.6mb 49f 33f
8:06 3 5 mph 1014.6mb 49f 33f
8:00  -  3 mph 1014.7mb 49f 32f
7:54  -  3 mph 1014.9mb 49f 32f
7:48 1 8 mph 1015mb 49f 33f
7:36 5 8 mph 1015mb 49f 33f
7:30 2 10 mph 1015.2mb 49f 33f
7:24 6 11 mph 1015mb 49f 33f
7:18 6 9 mph 1015.1mb 49f 33f
7:12 8 11 mph 1015.1mb 49f 33f
7:06 8 10 mph 1015.2mb 49f 33f
7:00 8 13 mph 1015.1mb 49f 33f
6:54 10 14 mph 1015.1mb 49f 33f
6:48 8 11 mph 1015.1mb 49f 33f
6:36 8 14 mph 1015.3mb 49f 33f
6:30 8 15 mph 1015.3mb 49f 33f
6:24 11 17 mph 1015.4mb 49f 33f
6:18 11 16 mph 1015.3mb 49f 33f
6:12 6 14 mph 1015.4mb 49f 33f
6:06 10 14 mph 1015.4mb 49f 33f
6:00 11 15 mph 1015.6mb 49f 33f
5:54 9 11 mph 1015.6mb 49f 33f
5:48 9 11 mph 1015.6mb 49f 33f
5:36 10 14 mph 1015.7mb 49f 33f
5:30 8 11 mph 1015.8mb 49f 33f
5:24 7 13 mph 1015.8mb 49f 33f
5:18 10 14 mph 1015.8mb 49f 33f
5:12 8 11 mph 1015.9mb 49f 33f
5:06 7 11 mph 1015.9mb 49f 33f
5:00 6 10 mph 1016mb 49f 33f
4:54 6 9 mph 1015.9mb 49f 33f
4:48 8 11 mph 1015.9mb 49f 33f
4:36 6 10 mph 1015.8mb 49f 33f
4:30 7 13 mph 1015.7mb 49f 33f
4:24 8 11 mph 1015.9mb 49f 33f
4:18 3 7 mph 1016mb 49f 33f
4:12 6 9 mph 1016.1mb 49f 33f
4:06 6 14 mph 1016.2mb 49f 33f
4:00 9 14 mph 1016.2mb 49f 33f
3:54 7 11 mph 1016.3mb 49f 33f
3:48 8 13 mph 1016.5mb 49f 34f
3:36 8 11 mph 1016.6mb 49f 34f
3:30 7 11 mph 1016.8mb 49f 34f
3:24 9 14 mph 1016.7mb 49f 34f
3:18 10 15 mph 1016.6mb 49f 34f
3:12 13 18 mph 1016.5mb 49f 34f
3:06 14 20 mph 1016.5mb 49f 34f
3:00 9 14 mph 1016.4mb 49f 34f
2:54 10 18 mph 1016.3mb 49f 34f
2:48 13 18 mph 1016.3mb 49f 34f
2:36 13 18 mph 1016.6mb 49f 34f
2:30 14 18 mph 1016.6mb 49f 34f
2:24 11 17 mph 1016.8mb 49f 34f
2:18 10 18 mph 1016.9mb 49f 35f
2:12 14 18 mph 1017mb 49f 34f
2:06 9 17 mph 1017.1mb 49f 34f
2:00 14 17 mph 1017.2mb 49f 35f
1:54 11 15 mph 1017.3mb 49f 35f
1:48 11 15 mph 1017.4mb 49f 34f
1:36 11 16 mph 1017.7mb 49f 34f
1:30 10 14 mph 1017.8mb 49f 34f
1:24 7 14 mph 1017.9mb 49f 34f
1:18 9 13 mph 1018.1mb 49f 34f
1:12 11 18 mph 1018.2mb 49f 34f
1:06 13 16 mph 1018.3mb 49f 34f
1:00 9 14 mph 1018.5mb 49f 34f
12:54 10 15 mph 1018.6mb 49f 34f
12:48 13 17 mph 1018.7mb 49f 34f
12:36 13 17 mph 1018.9mb 49f 34f
12:30 14 16 mph 1018.9mb 49f 34f
12:24 10 14 mph 1018.9mb 49f 34f
12:18 11 15 mph 1019mb 49f 34f
12:12 11 15 mph 1019.1mb 49f 33f
12:06 11 15 mph 1019.2mb 49f 33f
12:00 10 16 mph 1019.3mb 49f 33f
11:54 10 15 mph 1019.5mb 49f 33f
11:48 10 14 mph 1019.6mb 49f 33f
11:36 10 14 mph 1019.8mb 49f 33f
11:30 11 15 mph 1020mb 49f 33f
11:24 13 15 mph 1020.2mb 49f 33f
11:18 10 14 mph 1020.4mb 49f 32f
11:12 10 14 mph 1020.4mb 49f 32f
11:06 8 10 mph 1020.5mb 49f 32f
11:00 9 13 mph 1020.6mb 49f 32f
10:54 8 10 mph 1020.7mb 49f 32f
10:48 7 14 mph 1020.7mb 49f 32f
10:36 10 14 mph 1020.7mb 49f 32f
10:30 10 14 mph 1020.7mb 49f 32f
10:24 8 10 mph 1020.9mb 49f 32f
10:18 7 10 mph 1021mb 49f 31f
10:12 7 9 mph 1021mb 49f 31f
10:06 7 11 mph 1021.1mb 49f 32f
10:00 8 11 mph 1021.1mb 49f 31f
9:54 8 11 mph 1021.1mb 49f 31f
9:48 8 9 mph 1021.2mb 49f 31f
9:36 6 7 mph 1021.4mb 49f 31f
9:30 6 9 mph 1021.4mb 49f 30f
9:24 7 9 mph 1021.5mb 49f 30f
9:18 7 10 mph 1021.5mb 49f 30f
9:12 8 11 mph 1021.5mb 49f 30f
9:06 8 10 mph 1021.6mb 49f 30f
9:00 7 10 mph 1021.7mb 49f 30f
8:54 6 9 mph 1021.8mb 49f 30f
8:48 7 9 mph 1021.8mb 49f 30f
8:36 8 11 mph 1021.8mb 49f 30f
8:30 10 13 mph 1021.8mb 49f 30f
8:24 9 13 mph 1021.9mb 49f 30f
8:18 9 11 mph 1022mb 49f 29f
8:12 6 9 mph 1022mb 49f 29f
8:06 5 7 mph 1022.1mb 49f 29f
8:00 6 8 mph 1022.2mb 49f 29f
7:54 7 10 mph 1022.2mb 49f 29f
7:48 9 11 mph 1022.2mb 49f 29f
7:36 9 11 mph 1022.3mb 49f 29f
7:30 8 10 mph 1022.3mb 49f 29f
7:24 7 11 mph 1022.4mb 49f 29f
7:18 6 9 mph 1022.4mb 49f 29f
7:12 6 9 mph 1022.5mb 49f 29f
7:06 6 9 mph 1022.7mb 49f 29f
7:00 6 8 mph 1022.7mb 49f 29f
6:54 6 9 mph 1022.8mb 49f 29f
6:48 6 8 mph 1022.9mb 49f 29f
6:36 8 11 mph 1022.9mb 49f 29f
6:30 6 10 mph 1023.1mb 49f 29f
6:24 5 8 mph 1023.2mb 49f 29f
6:18 6 8 mph 1023.3mb 49f 29f
6:12 6 10 mph 1023.3mb 49f 29f
6:06 6 9 mph 1023.4mb 49f 29f
6:00 5 7 mph 1023.5mb 49f 29f
5:54 3 8 mph 1023.5mb 49f 29f
5:48 5 9 mph 1023.6mb 49f 29f
5:36 3 7 mph 1023.6mb 49f 29f
5:30 5 7 mph 1023.8mb 49f 28f
5:24 1 5 mph 1023.8mb 49f 28f
5:18 1 5 mph 1023.8mb 49f 28f
5:12  -  3 mph 1023.9mb 49f 28f
5:06  -  3 mph 1024.1mb 49f 29f
5:00  -  3 mph 1024.1mb 49f 28f
4:54 1 3 mph 1024.1mb 49f 28f
4:48 2 5 mph 1024.1mb 49f 29f
4:36 2 5 mph 1024.4mb 49f 29f
4:30 3 6 mph 1024.5mb 49f 29f
4:24 5 7 mph 1024.6mb 49f 29f
4:18 2 5 mph 1024.7mb 49f 29f
4:12 5 8 mph 1024.7mb 49f 29f
4:06 3 7 mph 1024.8mb 49f 29f
4:00 3 6 mph 1025mb 49f 29f
3:54 3 6 mph 1025mb 49f 29f
3:48 2 6 mph 1025.1mb 49f 29f
3:36 3 7 mph 1025.1mb 49f 29f
3:30 3 6 mph 1025.2mb 49f 29f
3:24 3 6 mph 1025.3mb 49f 29f
3:18 3 7 mph - - 29f
3:12 2 5 mph - - 29f
3:06 2 5 mph 1025.5mb 49f 29f
3:00 2 7 mph 1025.5mb 49f 29f
2:54 3 7 mph 1025.5mb 49f 29f
2:48 5 7 mph 1025.6mb 49f 29f
2:36 5 6 mph 1025.9mb 49f 29f
2:30 3 6 mph 1025.9mb 49f 29f
2:24 3 8 mph 1026mb 49f 30f
2:18 3 6 mph 1026.1mb 49f 30f
2:12 5 8 mph 1026.2mb 49f 30f
2:06 5 6 mph 1026.2mb 49f 29f
2:00 3 6 mph 1026.2mb 49f 29f
1:54 2 6 mph 1026.3mb 49f 30f
1:48 3 6 mph 1026.4mb 49f 29f
1:36 3 6 mph 1026.6mb 49f 29f
1:30 2 7 mph 1026.7mb 49f 29f
1:24 5 8 mph 1026.7mb 49f 29f
1:18 3 6 mph 1026.8mb 49f 29f
1:12 2 5 mph 1026.8mb 49f 29f
1:06 2 5 mph 1026.8mb 49f 29f
1:00 1 5 mph 1026.9mb 49f 29f
12:54 3 6 mph 1027mb 49f 29f
12:48 2 7 mph 1027mb 49f 29f
12:36 3 6 mph 1027mb 49f 29f
12:30 3 7 mph 1027.1mb 49f 29f
12:24 3 6 mph 1027.1mb 49f 29f
12:18 5 7 mph 1027.1mb 49f 30f
12:12 5 8 mph 1027.2mb 49f 29f
12:06 3 5 mph 1027.2mb 49f 29f
12:00 3 5 mph 1027.3mb 49f 29f
Mi 12/07 11:54 2 3 mph 1027.4mb 49f 29f
11:48 1 3 mph 1027.5mb 49f 29f
11:36 2 6 mph 1027.7mb 49f 29f
11:30 1 5 mph 1027.7mb 49f 29f
11:24 3 6 mph 1027.7mb 49f 29f
11:18 1 3 mph 1027.8mb 49f 29f
11:12 2 5 mph 1027.9mb 49f 29f
11:06 5 7 mph 1027.9mb 49f 30f
11:00 2 6 mph 1028mb 49f 29f
10:54 3 6 mph 1028.2mb 49f 30f
10:48 3 5 mph 1028.2mb 49f 29f
10:36 1 6 mph 1028.3mb 49f 29f
10:30 2 3 mph 1028.4mb 49f 29f
10:24 1 5 mph 1028.4mb 49f 29f
10:18 1 6 mph 1028.4mb 49f 29f
10:12 2 5 mph 1028.5mb 49f 29f
10:06 2 6 mph 1028.5mb 49f 29f
10:00 2 6 mph 1028.5mb 49f 29f
9:54 2 7 mph 1028.6mb 49f 30f
9:48 2 5 mph 1028.6mb 49f 29f
9:36 2 6 mph 1028.7mb 49f 29f
9:30 3 6 mph 1028.7mb 49f 30f
9:24 1 6 mph 1028.7mb 49f 29f
9:18 2 5 mph 1028.7mb 49f 29f
9:12 2 6 mph 1028.7mb 49f 29f
9:06 2 5 mph 1028.7mb 49f 29f
9:00 2 5 mph 1028.7mb 49f 30f
8:54 3 6 mph 1028.8mb 49f 30f
8:48 2 5 mph 1028.8mb 49f 30f
8:36 3 7 mph 1028.8mb 49f 29f
8:30 1 5 mph 1028.9mb 49f 29f
8:24 3 5 mph 1028.9mb 49f 30f
8:18 2 6 mph 1028.9mb 49f 30f
8:12 2 6 mph 1029mb 49f 30f
8:06 2 5 mph 1029mb 49f 30f
8:00 3 6 mph 1029.1mb 49f 30f
7:54 3 6 mph 1029.1mb 49f 30f
7:48 2 6 mph 1029.2mb 49f 30f
7:36 2 6 mph 1029.3mb 49f 29f
7:30 2 5 mph 1029.3mb 49f 30f
7:24 2 3 mph 1029.4mb 49f 30f
7:18  -  3 mph 1029.5mb 49f 29f
7:12 1 3 mph 1029.5mb 49f 30f
7:06 1 5 mph 1029.5mb 49f 30f
7:00 2 6 mph 1029.5mb 49f 30f
6:54 1 3 mph 1029.6mb 49f 30f
6:48 2 7 mph 1029.6mb 49f 30f
6:36 1 2 mph 1029.7mb 49f 30f
6:30 1 5 mph 1029.7mb 49f 30f
6:24 1 3 mph 1029.8mb 49f 30f
6:18 2 5 mph 1029.8mb 49f 30f
6:12  -  2 mph 1029.8mb 49f 30f
6:06  -  3 mph 1029.8mb 49f 30f
6:00 1 2 mph 1029.8mb 49f 30f
5:54  -  5 mph 1029.8mb 49f 31f
5:48 1 5 mph 1029.8mb 49f 31f
5:36 2 5 mph 1029.9mb 49f 30f
5:30 1 5 mph 1030mb 49f 31f
5:24 2 5 mph 1030mb 49f 31f
5:18 2 6 mph 1030mb 49f 31f
5:12 2 6 mph 1030mb 49f 31f
5:06 3 8 mph 1030.1mb 49f 31f
5:00 3 8 mph 1030.2mb 49f 31f
4:54 5 9 mph 1030.2mb 49f 31f
4:48 5 11 mph 1030.2mb 49f 31f
4:36 5 8 mph 1030.3mb 49f 32f
4:30 5 10 mph 1030.3mb 49f 32f
4:24 6 10 mph 1030.4mb 49f 32f
4:18 6 11 mph 1030.5mb 49f 32f
4:12 6 10 mph 1030.5mb 49f 32f
4:06 8 11 mph 1030.6mb 49f 33f
4:00 5 11 mph 1030.6mb 49f 33f
3:54 6 9 mph 1030.7mb 49f 33f
3:48 8 11 mph 1030.7mb 49f 33f
3:36 3 11 mph 1030.8mb 49f 33f
3:30 7 10 mph 1030.8mb 49f 34f
3:24 6 11 mph 1030.9mb 49f 33f
3:18 5 9 mph 1030.9mb 49f 33f
3:12 3 8 mph 1030.9mb 49f 34f
3:06 6 8 mph 1030.9mb 49f 34f
3:00 3 10 mph 1031mb 49f 34f
2:54 6 9 mph 1031mb 49f 34f
2:48 5 9 mph 1031.1mb 49f 34f
2:36 7 9 mph 1031.1mb 49f 34f
2:30 6 8 mph 1031.1mb 49f 34f
2:24 5 8 mph 1031.1mb 49f 34f
2:18 6 10 mph 1031.2mb 49f 34f
2:12 6 10 mph 1031.2mb 49f 34f
2:06 7 11 mph 1031.3mb 49f 34f
2:00 7 10 mph 1031.3mb 49f 33f
1:54 5 9 mph 1031.4mb 49f 34f
1:48 6 9 mph 1031.3mb 49f 34f
1:36 6 11 mph 1031.4mb 49f 34f
1:30 7 10 mph 1031.4mb 49f 33f
1:24 7 11 mph 1031.4mb 49f 33f
1:18 6 9 mph 1031.5mb 49f 34f
1:12 7 10 mph 1031.6mb 49f 34f
1:06 6 9 mph 1031.6mb 49f 33f
1:00 5 8 mph 1031.6mb 49f 34f
12:54 5 6 mph 1031.7mb 49f 33f
12:48 2 5 mph 1031.8mb 49f 34f
12:36 6 9 mph 1031.9mb 49f 33f
12:30 5 9 mph 1031.9mb 49f 33f
12:24 3 8 mph 1031.9mb 49f 33f
12:18 7 9 mph 1031.9mb 49f 33f
12:12 3 10 mph 1032mb 49f 33f
12:06 8 10 mph 1032mb 49f 32f
12:00 3 9 mph 1032mb 49f 33f
11:54 6 8 mph 1032mb 49f 32f
11:48 5 8 mph 1032mb 49f 32f
11:36 7 10 mph 1032.1mb 49f 32f
11:30 8 9 mph 1032.1mb 49f 32f
11:24 7 10 mph 1032.1mb 49f 32f
11:18 6 10 mph 1032.1mb 49f 31f
11:12 7 10 mph 1032.1mb 49f 32f
11:06 8 10 mph 1032.1mb 49f 31f
11:00 7 10 mph 1032.2mb 49f 32f
10:54 8 13 mph 1032.2mb 49f 31f
10:48 8 11 mph 1032.3mb 49f 31f
10:36 9 11 mph 1032.3mb 49f 31f
10:30 8 11 mph 1032.4mb 49f 30f
10:24 9 11 mph 1032.4mb 49f 30f
10:18 9 10 mph 1032.4mb 49f 31f
10:12 8 11 mph 1032.5mb 49f 30f
10:06 10 13 mph 1032.5mb 49f 30f
10:00 9 13 mph 1032.5mb 49f 30f
9:54 9 13 mph 1032.5mb 49f 30f
9:48 10 14 mph 1032.5mb 49f 30f
9:36 8 11 mph 1032.5mb 49f 30f
9:30 9 14 mph 1032.4mb 49f 30f
9:24 8 10 mph 1032.4mb 49f 29f
9:18 7 9 mph 1032.4mb 49f 29f
9:12 7 9 mph 1032.4mb 49f 29f
9:06 7 10 mph 1032.4mb 49f 29f
9:00 7 10 mph 1032.4mb 49f 29f
8:54 6 9 mph 1032.4mb 49f 29f
8:48 7 9 mph 1032.3mb 49f 29f
8:36 7 9 mph 1032.2mb 49f 28f
8:30 8 9 mph 1032.1mb 49f 28f
8:24 7 9 mph 1032.1mb 49f 28f
8:18 6 8 mph 1032.1mb 49f 28f
8:12 5 8 mph 1032mb 49f 28f
8:06 3 7 mph 1032mb 49f 27f
8:00 3 6 mph 1032mb 49f 27f
7:54 1 2 mph 1032mb 49f 26f
7:48  -  2 mph 1032mb 49f 26f
7:36  -  2 mph 1032mb 49f 26f
7:30  -  6 mph 1032mb 49f 27f
7:24 1 7 mph 1032mb 49f 27f
7:18 6 9 mph 1032mb 49f 28f
7:12 8 14 mph 1031.9mb 49f 28f
7:06 9 17 mph 1032mb 49f 28f
7:00 5 13 mph 1032.1mb 49f 28f
6:54 6 9 mph 1032.1mb 49f 28f
6:48 2 5 mph 1032.1mb 49f 26f
6:36  -  2 mph 1032.1mb 49f 26f
6:30  -  5 mph 1032.1mb 49f 27f
6:24 2 8 mph 1032.1mb 49f 28f
6:18 3 8 mph 1032.1mb 49f 27f
6:12 8 14 mph 1032.1mb 49f 27f
6:06 8 13 mph 1032mb 49f 28f
6:00 7 13 mph 1032mb 49f 28f
5:54 10 14 mph 1032mb 49f 28f
5:48 10 14 mph 1031.9mb 49f 28f
5:36 8 11 mph 1031.9mb 49f 27f
5:30 5 10 mph 1031.9mb 49f 27f
5:24 7 11 mph 1031.8mb 49f 28f
5:18 8 14 mph 1031.8mb 49f 27f
5:12 5 13 mph 1031.9mb 49f 27f
5:06 7 15 mph 1031.9mb 49f 28f
5:00 10 15 mph 1032mb 49f 27f
4:54 5 11 mph 1032.1mb 49f 27f
4:48 6 10 mph 1032.1mb 49f 28f
4:36 6 10 mph 1032.1mb 49f 28f
4:30 8 10 mph 1032.1mb 49f 28f
4:24 7 10 mph 1032.1mb 49f 28f
4:18 9 13 mph 1032mb 49f 28f
4:12 8 17 mph 1031.9mb 49f 28f
4:06 9 15 mph 1032mb 49f 28f
4:00 7 10 mph 1031.9mb 49f 28f
3:54 8 20 mph 1032mb 49f 28f
3:48 13 17 mph 1032mb 49f 29f
3:36 7 16 mph 1032mb 49f 28f
3:30 13 22 mph 1031.9mb 49f 29f
3:24 17 23 mph 1031.9mb 49f 29f
3:18 16 22 mph 1031.8mb 49f 30f
3:12 17 22 mph 1031.8mb 49f 29f
3:06 15 21 mph 1031.7mb 49f 29f
3:00 14 21 mph 1031.7mb 49f 29f
2:54 11 17 mph 1031.7mb 49f 29f
2:48 6 9 mph 1031.7mb 49f 28f
2:36 6 10 mph 1031.7mb 49f 28f
2:30 1 5 mph 1031.7mb 49f 28f
2:24 3 9 mph 1031.7mb 49f 28f
2:18 1 5 mph 1031.6mb 49f 28f
2:12  -  5 mph 1031.7mb 49f 28f
2:06 5 13 mph 1031.6mb 49f 28f
2:00 5 10 mph 1031.6mb 49f 29f
1:54 1 6 mph 1031.5mb 49f 28f
1:48 2 5 mph 1031.5mb 49f 28f
1:36 2 11 mph 1031.4mb 49f 29f
1:30 9 14 mph 1031.3mb 49f 29f
1:24 7 17 mph 1031.2mb 49f 29f
1:18 10 17 mph 1031.2mb 49f 29f
1:12 11 18 mph 1031.1mb 49f 29f
1:06 9 15 mph 1031.1mb 49f 29f
1:00 9 17 mph 1031mb 49f 30f
12:54 10 16 mph 1030.9mb 49f 30f
12:48 10 20 mph 1030.9mb 49f 30f
12:36 17 22 mph 1030.8mb 49f 30f
12:30 14 17 mph 1030.8mb 49f 30f
12:24 15 22 mph 1030.8mb 49f 30f
12:18 13 17 mph 1030.8mb 49f 30f
12:12 17 24 mph 1030.8mb 49f 30f
12:06 17 24 mph 1030.8mb 49f 30f
12:00 8 15 mph 1030.8mb 49f 30f
Di 12/06 11:54 15 22 mph 1030.6mb 49f 30f
11:48 15 21 mph 1030.5mb 49f 30f
11:36 14 20 mph 1030.5mb 49f 31f
11:30 15 20 mph 1030.4mb 49f 30f
11:24 15 22 mph 1030.3mb 49f 31f
11:18 16 21 mph 1030.2mb 49f 31f
11:12 15 21 mph 1030.1mb 49f 31f
11:06 14 20 mph 1030.1mb 49f 31f
11:00 13 16 mph 1030mb 49f 31f
10:54 11 15 mph 1029.9mb 49f 31f
10:48 14 18 mph 1029.9mb 49f 31f
10:36 15 20 mph 1029.8mb 49f 31f
10:30 10 17 mph 1029.7mb 49f 31f
10:24 14 17 mph 1029.6mb 49f 31f